Terminal Aerodrome Forecast
Issued by NWS Albuquerque, NM

Home | Current Version | Previous Version | Text Only | Print | Product List | Glossary On
Versions: 1 2 3 4 5 6 7 8 9 10 11 12 13 14 15 16 17
000
FTUS45 KABQ 291937 AAB
TAFABQ
TAF AMD
KABQ 291937Z 2920/3018 12012G20KT P6SM VCTS SCT060CB BKN120
      TEMPO 2921/3001 08015G27KT 4SM TSRA OVC035CB
     FM300200 08014G24KT P6SM VCSH OVC040
     FM301100 08010KT P6SM OVC050=

USA.gov is the U.S. government's official web portal to all federal, state and local government web resources and services.